sensor_id;sensor_type;location;lat;lon;timestamp;pressure;altitude;pressure_sealevel;temperature;humidity
64668;BME280;51077;42.716;23.344;2022-08-11T00:02:31;95498.16;;;22.26;55.61
64668;BME280;51077;42.716;23.344;2022-08-11T00:05:01;95504.91;;;22.23;55.43
64668;BME280;51077;42.716;23.344;2022-08-11T00:07:28;95506.09;;;22.20;55.46
64668;BME280;51077;42.716;23.344;2022-08-11T00:09:54;95496.81;;;22.18;55.54
64668;BME280;51077;42.716;23.344;2022-08-11T00:12:20;95496.66;;;22.16;55.52
64668;BME280;51077;42.716;23.344;2022-08-11T00:14:54;95492.25;;;22.13;55.97
64668;BME280;51077;42.716;23.344;2022-08-11T00:17:26;95492.78;;;22.11;55.72
64668;BME280;51077;42.716;23.344;2022-08-11T00:20:00;95501.78;;;22.09;55.75
64668;BME280;51077;42.716;23.344;2022-08-11T00:22:26;95498.06;;;22.07;55.89
64668;BME280;51077;42.716;23.344;2022-08-11T00:24:54;95496.59;;;22.06;55.77
64668;BME280;51077;42.716;23.344;2022-08-11T00:27:33;95488.06;;;22.04;56.35
64668;BME280;51077;42.716;23.344;2022-08-11T00:30:00;95484.38;;;22.01;56.24
64668;BME280;51077;42.716;23.344;2022-08-11T00:32:26;95485.72;;;22.00;56.34
64668;BME280;51077;42.716;23.344;2022-08-11T00:34:53;95484.06;;;21.97;56.39
64668;BME280;51077;42.716;23.344;2022-08-11T00:37:20;95493.06;;;21.96;56.22
64668;BME280;51077;42.716;23.344;2022-08-11T00:39:49;95481.13;;;21.95;56.32
64668;BME280;51077;42.716;23.344;2022-08-11T00:42:19;95480.97;;;21.93;56.39
64668;BME280;51077;42.716;23.344;2022-08-11T00:45:12;95487.16;;;21.92;56.50
64668;BME280;51077;42.716;23.344;2022-08-11T00:47:58;95492.56;;;21.90;56.62
64668;BME280;51077;42.716;23.344;2022-08-11T01:01:56;95489.91;;;21.82;57.01
64668;BME280;51077;42.716;23.344;2022-08-11T01:07:40;95480.63;;;21.79;56.87
64668;BME280;51077;42.716;23.344;2022-08-11T01:16:03;95483.72;;;21.74;56.76
64668;BME280;51077;42.716;23.344;2022-08-11T01:18:59;95482.06;;;21.71;57.08
64668;BME280;51077;42.716;23.344;2022-08-11T01:27:31;95485.13;;;21.65;57.48
64668;BME280;51077;42.716;23.344;2022-08-11T01:55:58;95471.06;;;21.46;57.95
64668;BME280;51077;42.716;23.344;2022-08-11T01:59:33;95482.81;;;21.44;57.79
64668;BME280;51077;42.716;23.344;2022-08-11T02:05:22;95474.72;;;21.39;57.73
64668;BME280;51077;42.716;23.344;2022-08-11T02:10:26;95477.19;;;21.35;57.66
64668;BME280;51077;42.716;23.344;2022-08-11T02:13:46;95473.50;;;21.32;57.80
64668;BME280;51077;42.716;23.344;2022-08-11T02:22:15;95479.16;;;21.24;58.08
64668;BME280;51077;42.716;23.344;2022-08-11T02:25:08;95482.38;;;21.21;58.15
64668;BME280;51077;42.716;23.344;2022-08-11T02:27:42;95480.75;;;21.18;58.39
64668;BME280;51077;42.716;23.344;2022-08-11T02:30:19;95483.34;;;21.16;58.34
64668;BME280;51077;42.716;23.344;2022-08-11T02:33:19;95478.97;;;21.13;58.40
64668;BME280;51077;42.716;23.344;2022-08-11T02:35:56;95480.09;;;21.09;58.36
64668;BME280;51077;42.716;23.344;2022-08-11T02:41:01;95470.94;;;20.99;58.55
64668;BME280;51077;42.716;23.344;2022-08-11T02:44:08;95472.81;;;20.97;58.63
64668;BME280;51077;42.716;23.344;2022-08-11T02:57:28;95469.41;;;20.54;59.63
64668;BME280;51077;42.716;23.344;2022-08-11T03:00:06;95473.34;;;20.51;59.77
64668;BME280;51077;42.716;23.344;2022-08-11T03:10:40;95475.56;;;20.52;59.83
64668;BME280;51077;42.716;23.344;2022-08-11T03:13:28;95483.19;;;20.52;59.80
64668;BME280;51077;42.716;23.344;2022-08-11T03:21:58;95485.25;;;20.51;59.68
64668;BME280;51077;42.716;23.344;2022-08-11T03:24:55;95485.25;;;20.51;59.91
64668;BME280;51077;42.716;23.344;2022-08-11T03:27:45;95474.81;;;20.52;59.92
64668;BME280;51077;42.716;23.344;2022-08-11T03:33:29;95482.28;;;20.49;59.77
64668;BME280;51077;42.716;23.344;2022-08-11T03:41:55;95483.19;;;20.52;59.74
64668;BME280;51077;42.716;23.344;2022-08-11T03:55:39;95486.81;;;20.37;59.25
64668;BME280;51077;42.716;23.344;2022-08-11T04:27:11;95504.44;;;20.65;58.45
64668;BME280;51077;42.716;23.344;2022-08-11T04:29:55;95495.81;;;20.70;58.40
64668;BME280;51077;42.716;23.344;2022-08-11T04:34:58;95497.53;;;20.83;58.12
64668;BME280;51077;42.716;23.344;2022-08-11T05:12:35;95503.22;;;22.47;54.35
64668;BME280;51077;42.716;23.344;2022-08-11T05:15:11;95508.50;;;22.53;54.07
64668;BME280;51077;42.716;23.344;2022-08-11T05:18:13;95503.06;;;22.55;54.13
64668;BME280;51077;42.716;23.344;2022-08-11T05:21:05;95501.31;;;22.60;54.00
64668;BME280;51077;42.716;23.344;2022-08-11T05:24:02;95505.16;;;22.64;53.83
64668;BME280;51077;42.716;23.344;2022-08-11T05:26:49;95508.38;;;22.70;53.86
64668;BME280;51077;42.716;23.344;2022-08-11T05:32:34;95496.31;;;22.87;53.69
64668;BME280;51077;42.716;23.344;2022-08-11T05:35:28;95498.25;;;22.94;53.46
64668;BME280;51077;42.716;23.344;2022-08-11T05:37:56;95495.28;;;23.02;53.20
64668;BME280;51077;42.716;23.344;2022-08-11T05:40:47;95493.25;;;23.12;53.13
64668;BME280;51077;42.716;23.344;2022-08-11T05:43:32;95494.56;;;23.21;53.25
64668;BME280;51077;42.716;23.344;2022-08-11T05:46:18;95496.00;;;23.31;52.94
64668;BME280;51077;42.716;23.344;2022-08-11T05:49:08;95503.06;;;23.42;52.68
64668;BME280;51077;42.716;23.344;2022-08-11T05:51:53;95500.22;;;23.52;52.44
64668;BME280;51077;42.716;23.344;2022-08-11T05:54:39;95497.41;;;23.62;52.34
64668;BME280;51077;42.716;23.344;2022-08-11T05:57:28;95495.31;;;23.72;52.13
64668;BME280;51077;42.716;23.344;2022-08-11T06:00:06;95495.88;;;23.80;51.95
64668;BME280;51077;42.716;23.344;2022-08-11T06:02:52;95490.09;;;23.88;51.84
64668;BME280;51077;42.716;23.344;2022-08-11T06:05:21;95492.00;;;23.95;51.52
64668;BME280;51077;42.716;23.344;2022-08-11T06:07:48;95495.94;;;24.01;51.53
64668;BME280;51077;42.716;23.344;2022-08-11T06:10:34;95493.69;;;24.10;51.54
64668;BME280;51077;42.716;23.344;2022-08-11T06:13:00;95494.97;;;24.18;51.31
64668;BME280;51077;42.716;23.344;2022-08-11T06:15:28;95496.25;;;24.27;51.07
64668;BME280;51077;42.716;23.344;2022-08-11T06:17:54;95491.94;;;24.36;51.05
64668;BME280;51077;42.716;23.344;2022-08-11T06:20:21;95496.75;;;24.45;50.90
64668;BME280;51077;42.716;23.344;2022-08-11T06:23:02;95484.88;;;24.56;50.69
64668;BME280;51077;42.716;23.344;2022-08-11T06:25:32;95488.22;;;24.64;50.71
64668;BME280;51077;42.716;23.344;2022-08-11T06:28:01;95485.34;;;24.74;50.31
64668;BME280;51077;42.716;23.344;2022-08-11T06:30:40;95488.94;;;24.86;50.16
64668;BME280;51077;42.716;23.344;2022-08-11T06:33:10;95484.81;;;24.99;50.09
64668;BME280;51077;42.716;23.344;2022-08-11T06:38:31;95487.16;;;25.24;49.52
64668;BME280;51077;42.716;23.344;2022-08-11T06:41:15;95479.63;;;25.38;49.43
64668;BME280;51077;42.716;23.344;2022-08-11T06:46:32;95493.59;;;25.71;48.73
64668;BME280;51077;42.716;23.344;2022-08-11T06:49:02;95487.41;;;25.85;48.18
64668;BME280;51077;42.716;23.344;2022-08-11T06:51:29;95487.53;;;25.98;47.97
64668;BME280;51077;42.716;23.344;2022-08-11T06:53:57;95490.47;;;26.12;47.79
64668;BME280;51077;42.716;23.344;2022-08-11T06:56:34;95487.66;;;26.24;47.03
64668;BME280;51077;42.716;23.344;2022-08-11T06:59:20;95490.06;;;26.41;47.00
64668;BME280;51077;42.716;23.344;2022-08-11T07:02:14;95484.31;;;26.63;46.29
64668;BME280;51077;42.716;23.344;2022-08-11T07:04:46;95483.25;;;26.81;45.95
64668;BME280;51077;42.716;23.344;2022-08-11T07:10:46;95489.22;;;27.25;44.85
64668;BME280;51077;42.716;23.344;2022-08-11T07:13:37;95485.03;;;27.51;44.27
64668;BME280;51077;42.716;23.344;2022-08-11T07:16:27;95499.13;;;27.77;43.24
64668;BME280;51077;42.716;23.344;2022-08-11T07:19:01;95489.16;;;28.01;42.42
64668;BME280;51077;42.716;23.344;2022-08-11T07:21:46;95494.50;;;28.23;41.72
64668;BME280;51077;42.716;23.344;2022-08-11T07:24:35;95484.28;;;28.43;41.69
64668;BME280;51077;42.716;23.344;2022-08-11T07:27:22;95487.91;;;28.60;41.01
64668;BME280;51077;42.716;23.344;2022-08-11T07:30:09;95484.53;;;28.77;40.71
64668;BME280;51077;42.716;23.344;2022-08-11T07:32:49;95490.91;;;28.91;40.38
64668;BME280;51077;42.716;23.344;2022-08-11T07:35:21;95485.03;;;29.01;40.11
64668;BME280;51077;42.716;23.344;2022-08-11T07:37:56;95486.25;;;29.12;39.67
64668;BME280;51077;42.716;23.344;2022-08-11T07:40:23;95477.22;;;29.15;39.51
64668;BME280;51077;42.716;23.344;2022-08-11T07:42:51;95481.50;;;29.16;39.44
64668;BME280;51077;42.716;23.344;2022-08-11T07:45:18;95482.88;;;29.15;39.02
64668;BME280;51077;42.716;23.344;2022-08-11T07:48:03;95483.53;;;29.14;38.90
64668;BME280;51077;42.716;23.344;2022-08-11T07:50:50;95476.22;;;29.09;38.58
64668;BME280;51077;42.716;23.344;2022-08-11T07:53:35;95485.72;;;29.15;38.48
64668;BME280;51077;42.716;23.344;2022-08-11T07:56:03;95479.28;;;29.28;38.52
64668;BME280;51077;42.716;23.344;2022-08-11T07:58:34;95472.94;;;29.44;38.48
64668;BME280;51077;42.716;23.344;2022-08-11T08:01:23;95467.59;;;29.66;37.91
64668;BME280;51077;42.716;23.344;2022-08-11T08:04:10;95469.25;;;29.87;37.45
64668;BME280;51077;42.716;23.344;2022-08-11T08:06:55;95473.81;;;30.10;36.88
64668;BME280;51077;42.716;23.344;2022-08-11T08:09:41;95457.94;;;30.18;36.47
64668;BME280;51077;42.716;23.344;2022-08-11T08:12:26;95472.06;;;30.34;35.61
64668;BME280;51077;42.716;23.344;2022-08-11T08:15:12;95464.91;;;30.49;35.49
64668;BME280;51077;42.716;23.344;2022-08-11T08:17:58;95464.28;;;30.68;35.44
64668;BME280;51077;42.716;23.344;2022-08-11T08:20:45;95458.69;;;30.86;35.07
64668;BME280;51077;42.716;23.344;2022-08-11T08:23:11;95459.84;;;30.97;34.86
64668;BME280;51077;42.716;23.344;2022-08-11T08:25:39;95467.28;;;31.06;34.66
64668;BME280;51077;42.716;23.344;2022-08-11T08:28:08;95457.88;;;31.19;34.47
64668;BME280;51077;42.716;23.344;2022-08-11T08:30:35;95466.56;;;31.41;34.42
64668;BME280;51077;42.716;23.344;2022-08-11T08:33:21;95456.78;;;31.64;33.83
64668;BME280;51077;42.716;23.344;2022-08-11T08:35:50;95449.41;;;31.75;33.94
64668;BME280;51077;42.716;23.344;2022-08-11T08:38:16;95448.41;;;31.86;33.29
64668;BME280;51077;42.716;23.344;2022-08-11T08:40:44;95449.69;;;32.01;33.14
64668;BME280;51077;42.716;23.344;2022-08-11T08:43:14;95442.19;;;32.10;33.12
64668;BME280;51077;42.716;23.344;2022-08-11T08:45:41;95441.94;;;31.84;32.43
64668;BME280;51077;42.716;23.344;2022-08-11T08:48:15;95449.47;;;31.77;33.15
64668;BME280;51077;42.716;23.344;2022-08-11T08:50:52;95446.91;;;31.83;32.83
64668;BME280;51077;42.716;23.344;2022-08-11T08:53:41;95444.63;;;31.99;32.96
64668;BME280;51077;42.716;23.344;2022-08-11T08:56:10;95447.84;;;32.10;32.82
64668;BME280;51077;42.716;23.344;2022-08-11T08:58:38;95443.09;;;32.16;32.75
64668;BME280;51077;42.716;23.344;2022-08-11T09:01:06;95447.53;;;32.21;32.50
64668;BME280;51077;42.716;23.344;2022-08-11T09:03:37;95439.63;;;32.38;32.81
64668;BME280;51077;42.716;23.344;2022-08-11T09:06:03;95443.84;;;32.57;32.23
64668;BME280;51077;42.716;23.344;2022-08-11T09:08:31;95443.19;;;32.80;31.83
64668;BME280;51077;42.716;23.344;2022-08-11T09:10:57;95430.56;;;33.07;31.36
64668;BME280;51077;42.716;23.344;2022-08-11T09:13:45;95429.41;;;33.38;31.02
64668;BME280;51077;42.716;23.344;2022-08-11T09:16:11;95429.69;;;33.46;30.65
64668;BME280;51077;42.716;23.344;2022-08-11T09:18:37;95433.94;;;33.45;30.54
64668;BME280;51077;42.716;23.344;2022-08-11T09:21:04;95429.75;;;33.48;30.58
64668;BME280;51077;42.716;23.344;2022-08-11T09:23:30;95421.44;;;33.57;30.63
64668;BME280;51077;42.716;23.344;2022-08-11T09:26:15;95424.97;;;33.79;30.26
64668;BME280;51077;42.716;23.344;2022-08-11T09:29:00;95422.16;;;34.05;29.71
64668;BME280;51077;42.716;23.344;2022-08-11T09:31:30;95432.16;;;34.32;29.61
64668;BME280;51077;42.716;23.344;2022-08-11T09:33:58;95423.59;;;34.58;29.12
64668;BME280;51077;42.716;23.344;2022-08-11T09:36:25;95421.16;;;34.74;28.77
64668;BME280;51077;42.716;23.344;2022-08-11T09:39:09;95426.84;;;35.03;28.38
64668;BME280;51077;42.716;23.344;2022-08-11T09:41:54;95410.53;;;35.37;27.49
64668;BME280;51077;42.716;23.344;2022-08-11T09:44:21;95420.25;;;35.56;27.57
64668;BME280;51077;42.716;23.344;2022-08-11T09:47:05;95411.84;;;35.64;27.39
64668;BME280;51077;42.716;23.344;2022-08-11T09:49:42;95418.25;;;35.63;27.76
64668;BME280;51077;42.716;23.344;2022-08-11T09:52:09;95404.94;;;35.43;27.86
64668;BME280;51077;42.716;23.344;2022-08-11T09:54:39;95404.22;;;35.43;27.55
64668;BME280;51077;42.716;23.344;2022-08-11T09:57:05;95408.47;;;35.40;27.81
64668;BME280;51077;42.716;23.344;2022-08-11T09:59:51;95402.50;;;35.30;27.75
64668;BME280;51077;42.716;23.344;2022-08-11T10:02:24;95400.84;;;35.48;28.10
64668;BME280;51077;42.716;23.344;2022-08-11T10:04:51;95389.81;;;35.69;27.30
64668;BME280;51077;42.716;23.344;2022-08-11T10:07:39;95392.06;;;36.09;26.44
64668;BME280;51077;42.716;23.344;2022-08-11T10:10:07;95390.94;;;36.24;26.17
64668;BME280;51077;42.716;23.344;2022-08-11T10:12:37;95387.69;;;36.42;25.83
64668;BME280;51077;42.716;23.344;2022-08-11T10:15:11;95384.53;;;36.64;25.72
64668;BME280;51077;42.716;23.344;2022-08-11T10:18:07;95379.00;;;36.76;25.45
64668;BME280;51077;42.716;23.344;2022-08-11T10:20:54;95379.22;;;36.90;25.18
64668;BME280;51077;42.716;23.344;2022-08-11T10:23:22;95382.91;;;36.95;25.29
64668;BME280;51077;42.716;23.344;2022-08-11T10:26:07;95383.66;;;36.97;25.13
64668;BME280;51077;42.716;23.344;2022-08-11T10:28:52;95376.66;;;37.07;25.01
64668;BME280;51077;42.716;23.344;2022-08-11T10:31:19;95383.25;;;37.17;24.34
64668;BME280;51077;42.716;23.344;2022-08-11T10:34:05;95382.72;;;37.31;24.28
64668;BME280;51077;42.716;23.344;2022-08-11T10:36:35;95378.81;;;37.57;23.88
64668;BME280;51077;42.716;23.344;2022-08-11T10:39:14;95378.97;;;37.69;23.92
64668;BME280;51077;42.716;23.344;2022-08-11T10:41:45;95376.47;;;37.97;23.34
64668;BME280;51077;42.716;23.344;2022-08-11T10:44:52;95370.13;;;38.09;23.75
64668;BME280;51077;42.716;23.344;2022-08-11T10:47:18;95371.03;;;38.24;23.48
64668;BME280;51077;42.716;23.344;2022-08-11T10:50:07;95353.22;;;38.34;22.96
64668;BME280;51077;42.716;23.344;2022-08-11T10:52:52;95358.19;;;38.29;23.16
64668;BME280;51077;42.716;23.344;2022-08-11T10:55:37;95351.09;;;38.34;23.06
64668;BME280;51077;42.716;23.344;2022-08-11T10:58:21;95356.13;;;38.38;23.18
64668;BME280;51077;42.716;23.344;2022-08-11T11:01:07;95351.19;;;38.44;23.04
64668;BME280;51077;42.716;23.344;2022-08-11T11:03:34;95358.38;;;38.47;23.18
64668;BME280;51077;42.716;23.344;2022-08-11T11:08:52;95352.03;;;38.59;22.67
64668;BME280;51077;42.716;23.344;2022-08-11T11:11:25;95345.72;;;38.75;22.67
64668;BME280;51077;42.716;23.344;2022-08-11T11:14:14;95340.81;;;38.92;22.54
64668;BME280;51077;42.716;23.344;2022-08-11T11:16:59;95344.50;;;39.03;22.56
64668;BME280;51077;42.716;23.344;2022-08-11T11:19:39;95344.50;;;39.03;22.31
64668;BME280;51077;42.716;23.344;2022-08-11T11:22:06;95335.19;;;39.06;22.45
64668;BME280;51077;42.716;23.344;2022-08-11T11:27:32;95338.78;;;39.07;22.50
64668;BME280;51077;42.716;23.344;2022-08-11T11:30:08;95348.38;;;38.51;23.05
64668;BME280;51077;42.716;23.344;2022-08-11T11:35:08;95337.09;;;37.41;24.41
64668;BME280;51077;42.716;23.344;2022-08-11T11:37:35;95336.25;;;37.35;23.99
64668;BME280;51077;42.716;23.344;2022-08-11T11:40:08;95336.00;;;37.67;23.99
64668;BME280;51077;42.716;23.344;2022-08-11T11:42:35;95343.13;;;37.66;24.10
64668;BME280;51077;42.716;23.344;2022-08-11T11:45:02;95339.66;;;37.21;24.60
64668;BME280;51077;42.716;23.344;2022-08-11T11:47:29;95327.97;;;36.60;24.82
64668;BME280;51077;42.716;23.344;2022-08-11T11:49:54;95332.09;;;36.49;25.76
64668;BME280;51077;42.716;23.344;2022-08-11T11:52:21;95334.13;;;36.04;25.25
64668;BME280;51077;42.716;23.344;2022-08-11T11:54:51;95337.47;;;35.56;25.62
64668;BME280;51077;42.716;23.344;2022-08-11T11:57:19;95331.88;;;35.28;26.47
64668;BME280;51077;42.716;23.344;2022-08-11T12:00:17;95329.38;;;34.82;27.19
64668;BME280;51077;42.716;23.344;2022-08-11T12:03:05;95339.31;;;34.51;27.36
64668;BME280;51077;42.716;23.344;2022-08-11T12:05:35;95336.47;;;34.23;27.70
64668;BME280;51077;42.716;23.344;2022-08-11T12:08:01;95337.44;;;34.06;27.97
64668;BME280;51077;42.716;23.344;2022-08-11T12:13:10;95327.59;;;34.11;28.29
64668;BME280;51077;42.716;23.344;2022-08-11T12:15:54;95324.38;;;34.24;28.30
64668;BME280;51077;42.716;23.344;2022-08-11T12:18:21;95321.50;;;34.50;28.05
64668;BME280;51077;42.716;23.344;2022-08-11T12:20:47;95326.31;;;34.74;27.92
64668;BME280;51077;42.716;23.344;2022-08-11T12:23:14;95328.94;;;34.94;27.58
64668;BME280;51077;42.716;23.344;2022-08-11T12:25:59;95317.06;;;35.04;27.39
64668;BME280;51077;42.716;23.344;2022-08-11T12:28:44;95321.88;;;35.29;27.20
64668;BME280;51077;42.716;23.344;2022-08-11T12:31:10;95325.16;;;35.47;26.84
64668;BME280;51077;42.716;23.344;2022-08-11T12:33:37;95330.28;;;35.21;26.91
64668;BME280;51077;42.716;23.344;2022-08-11T12:36:07;95330.47;;;34.97;27.13
64668;BME280;51077;42.716;23.344;2022-08-11T12:38:34;95335.44;;;34.66;27.47
64668;BME280;51077;42.716;23.344;2022-08-11T12:41:01;95339.25;;;34.21;27.85
64668;BME280;51077;42.716;23.344;2022-08-11T12:43:46;95342.50;;;33.83;28.89
64668;BME280;51077;42.716;23.344;2022-08-11T12:46:33;95347.91;;;33.97;28.62
64668;BME280;51077;42.716;23.344;2022-08-11T12:49:09;95352.47;;;34.36;28.96
64668;BME280;51077;42.716;23.344;2022-08-11T12:51:56;95347.38;;;34.89;28.18
64668;BME280;51077;42.716;23.344;2022-08-11T12:57:03;95349.06;;;35.00;28.30
64668;BME280;51077;42.716;23.344;2022-08-11T12:59:50;95340.44;;;34.68;28.16
64668;BME280;51077;42.716;23.344;2022-08-11T13:02:35;95336.47;;;34.81;28.55
64668;BME280;51077;42.716;23.344;2022-08-11T13:05:19;95322.84;;;35.08;28.08
64668;BME280;51077;42.716;23.344;2022-08-11T13:07:46;95330.88;;;35.15;27.84
64668;BME280;51077;42.716;23.344;2022-08-11T13:10:15;95326.09;;;35.26;28.06
64668;BME280;51077;42.716;23.344;2022-08-11T13:13:06;95329.56;;;35.20;27.92
64668;BME280;51077;42.716;23.344;2022-08-11T13:15:32;95328.56;;;35.08;28.42
64668;BME280;51077;42.716;23.344;2022-08-11T13:18:01;95326.34;;;35.04;28.02
64668;BME280;51077;42.716;23.344;2022-08-11T13:20:27;95326.31;;;35.02;28.03
64668;BME280;51077;42.716;23.344;2022-08-11T13:22:55;95322.81;;;34.75;28.03
64668;BME280;51077;42.716;23.344;2022-08-11T13:25:23;95313.31;;;34.37;28.43
64668;BME280;51077;42.716;23.344;2022-08-11T13:27:52;95315.28;;;34.02;28.87
64668;BME280;51077;42.716;23.344;2022-08-11T13:30:22;95309.84;;;33.86;28.75
64668;BME280;51077;42.716;23.344;2022-08-11T13:33:08;95311.41;;;33.65;28.95
64668;BME280;51077;42.716;23.344;2022-08-11T13:35:35;95313.56;;;33.41;29.15
64668;BME280;51077;42.716;23.344;2022-08-11T13:38:02;95303.09;;;32.99;28.89
64668;BME280;51077;42.716;23.344;2022-08-11T13:40:29;95304.81;;;32.87;28.76
64668;BME280;51077;42.716;23.344;2022-08-11T13:42:56;95297.25;;;32.71;29.15
64668;BME280;51077;42.716;23.344;2022-08-11T13:45:26;95295.16;;;32.50;29.20
64668;BME280;51077;42.716;23.344;2022-08-11T13:47:54;95296.56;;;32.29;29.64
64668;BME280;51077;42.716;23.344;2022-08-11T13:50:20;95290.72;;;32.23;29.82
64668;BME280;51077;42.716;23.344;2022-08-11T13:53:07;95288.91;;;32.12;30.15
64668;BME280;51077;42.716;23.344;2022-08-11T13:55:39;95284.53;;;32.09;29.71
64668;BME280;51077;42.716;23.344;2022-08-11T13:58:09;95284.94;;;31.99;29.39
64668;BME280;51077;42.716;23.344;2022-08-11T14:00:35;95285.47;;;31.93;29.57
64668;BME280;51077;42.716;23.344;2022-08-11T14:03:02;95280.22;;;31.86;29.89
64668;BME280;51077;42.716;23.344;2022-08-11T14:05:37;95276.78;;;31.69;29.82
64668;BME280;51077;42.716;23.344;2022-08-11T14:08:08;95284.28;;;31.61;30.25
64668;BME280;51077;42.716;23.344;2022-08-11T14:10:36;95275.56;;;31.54;30.51
64668;BME280;51077;42.716;23.344;2022-08-11T14:13:08;95271.56;;;31.42;30.71
64668;BME280;51077;42.716;23.344;2022-08-11T14:15:54;95277.53;;;31.30;30.87
64668;BME280;51077;42.716;23.344;2022-08-11T14:18:27;95278.75;;;31.25;30.89
64668;BME280;51077;42.716;23.344;2022-08-11T14:20:57;95275.91;;;31.25;31.04
64668;BME280;51077;42.716;23.344;2022-08-11T14:23:45;95273.63;;;31.21;31.55
64668;BME280;51077;42.716;23.344;2022-08-11T14:26:14;95278.44;;;31.17;31.87
64668;BME280;51077;42.716;23.344;2022-08-11T14:31:25;95276.38;;;30.99;33.04
64668;BME280;51077;42.716;23.344;2022-08-11T14:33:56;95270.56;;;30.95;32.91
64668;BME280;51077;42.716;23.344;2022-08-11T14:36:24;95274.06;;;30.94;33.17
64668;BME280;51077;42.716;23.344;2022-08-11T14:38:51;95269.09;;;30.94;32.87
64668;BME280;51077;42.716;23.344;2022-08-11T14:41:18;95271.31;;;30.96;33.26
64668;BME280;51077;42.716;23.344;2022-08-11T14:44:03;95269.91;;;30.97;32.64
64668;BME280;51077;42.716;23.344;2022-08-11T14:46:48;95267.88;;;30.99;32.85
64668;BME280;51077;42.716;23.344;2022-08-11T14:49:33;95266.38;;;30.96;33.03
64668;BME280;51077;42.716;23.344;2022-08-11T14:52:11;95263.63;;;30.81;32.88
64668;BME280;51077;42.716;23.344;2022-08-11T14:54:46;95264.28;;;30.79;32.82
64668;BME280;51077;42.716;23.344;2022-08-11T14:57:32;95259.84;;;30.74;32.77
64668;BME280;51077;42.716;23.344;2022-08-11T15:00:00;95262.50;;;30.70;33.13
64668;BME280;51077;42.716;23.344;2022-08-11T15:02:28;95273.75;;;30.68;33.24
64668;BME280;51077;42.716;23.344;2022-08-11T15:05:13;95269.38;;;30.65;32.88
64668;BME280;51077;42.716;23.344;2022-08-11T15:07:39;95267.69;;;30.58;33.03
64668;BME280;51077;42.716;23.344;2022-08-11T15:10:07;95266.09;;;30.52;32.95
64668;BME280;51077;42.716;23.344;2022-08-11T15:12:34;95257.97;;;30.45;33.27
64668;BME280;51077;42.716;23.344;2022-08-11T15:15:05;95259.94;;;30.40;33.52
64668;BME280;51077;42.716;23.344;2022-08-11T15:17:54;95251.19;;;30.34;33.49
64668;BME280;51077;42.716;23.344;2022-08-11T15:20:21;95259.84;;;30.20;33.30
64668;BME280;51077;42.716;23.344;2022-08-11T15:23:08;95262.13;;;30.08;33.28
64668;BME280;51077;42.716;23.344;2022-08-11T15:25:58;95266.44;;;30.09;33.82
64668;BME280;51077;42.716;23.344;2022-08-11T15:28:27;95268.47;;;30.07;33.67
64668;BME280;51077;42.716;23.344;2022-08-11T15:31:14;95261.25;;;30.03;33.68
64668;BME280;51077;42.716;23.344;2022-08-11T15:34:02;95265.22;;;29.96;33.92
64668;BME280;51077;42.716;23.344;2022-08-11T15:36:48;95264.31;;;29.92;33.69
64668;BME280;51077;42.716;23.344;2022-08-11T15:40:40;95264.78;;;29.86;33.81
64668;BME280;51077;42.716;23.344;2022-08-11T15:42:59;95263.81;;;29.79;33.83
64668;BME280;51077;42.716;23.344;2022-08-11T15:45:46;95257.16;;;29.73;33.80
64668;BME280;51077;42.716;23.344;2022-08-11T15:51:07;95259.31;;;29.57;33.59
64668;BME280;51077;42.716;23.344;2022-08-11T15:53:49;95270.31;;;29.50;34.04
64668;BME280;51077;42.716;23.344;2022-08-11T15:56:16;95265.78;;;29.43;33.84
64668;BME280;51077;42.716;23.344;2022-08-11T15:58:45;95259.78;;;29.35;34.08
64668;BME280;51077;42.716;23.344;2022-08-11T16:01:30;95265.06;;;29.27;33.96
64668;BME280;51077;42.716;23.344;2022-08-11T16:04:19;95261.88;;;29.19;34.00
64668;BME280;51077;42.716;23.344;2022-08-11T16:06:56;95270.00;;;29.11;34.08
64668;BME280;51077;42.716;23.344;2022-08-11T16:09:30;95268.91;;;29.02;34.13
64668;BME280;51077;42.716;23.344;2022-08-11T16:12:00;95269.88;;;28.93;34.06
64668;BME280;51077;42.716;23.344;2022-08-11T16:14:27;95266.13;;;28.88;34.36
64668;BME280;51077;42.716;23.344;2022-08-11T16:17:14;95269.31;;;28.80;34.17
64668;BME280;51077;42.716;23.344;2022-08-11T16:19:43;95271.13;;;28.74;34.38
64668;BME280;51077;42.716;23.344;2022-08-11T16:22:11;95270.13;;;28.67;34.54
64668;BME280;51077;42.716;23.344;2022-08-11T16:24:41;95267.75;;;28.62;34.64
64668;BME280;51077;42.716;23.344;2022-08-11T16:27:09;95271.63;;;28.54;34.67
64668;BME280;51077;42.716;23.344;2022-08-11T16:29:40;95267.81;;;28.48;34.82
64668;BME280;51077;42.716;23.344;2022-08-11T16:32:10;95273.16;;;28.42;34.76
64668;BME280;51077;42.716;23.344;2022-08-11T16:34:47;95270.13;;;28.38;35.01
64668;BME280;51077;42.716;23.344;2022-08-11T16:37:35;95280.63;;;28.35;35.03
64668;BME280;51077;42.716;23.344;2022-08-11T16:40:21;95282.50;;;28.30;34.93
64668;BME280;51077;42.716;23.344;2022-08-11T16:42:48;95276.00;;;28.28;35.10
64668;BME280;51077;42.716;23.344;2022-08-11T16:45:33;95273.72;;;28.24;35.21
64668;BME280;51077;42.716;23.344;2022-08-11T16:48:20;95277.81;;;28.21;35.25
64668;BME280;51077;42.716;23.344;2022-08-11T16:50:47;95280.44;;;28.17;35.14
64668;BME280;51077;42.716;23.344;2022-08-11T16:53:13;95281.69;;;28.14;35.45
64668;BME280;51077;42.716;23.344;2022-08-11T16:55:43;95281.50;;;28.10;35.38
64668;BME280;51077;42.716;23.344;2022-08-11T16:58:10;95285.56;;;28.07;35.53
64668;BME280;51077;42.716;23.344;2022-08-11T17:00:55;95289.03;;;28.05;35.28
64668;BME280;51077;42.716;23.344;2022-08-11T17:03:23;95288.84;;;28.01;35.57
64668;BME280;51077;42.716;23.344;2022-08-11T17:06:09;95291.44;;;27.97;35.40
64668;BME280;51077;42.716;23.344;2022-08-11T17:08:53;95303.25;;;27.94;35.68